Time;durP1;ratioP1;P1;durP2;ratioP2;P2;SDS_P1;SDS_P2;PMS_P1;PMS_P2;Temp;Humidity;BMP_temperature;BMP_pressure;BME280_temperature;BME280_humidity;BME280_pressure;Samples;Min_cycle;Max_cycle;Signal;HPM_P1;HPM_P2
2024/03/20 05:02:46;;;;;;;1999.90;999.90;;;;;;;;;;5065014;23;20298;-69
2024/03/20 05:05:31;;;;;;;1999.90;999.90;;;;;;;;;;4994919;28;20279;-67
2024/03/20 05:08:16;;;;;;;1999.90;999.90;;;;;;;;;;4995542;28;20211;-68
2024/03/20 05:11:01;;;;;;;1999.90;999.90;;;;;;;;;;4995246;28;20223;-67
2024/03/20 05:13:46;;;;;;;1999.90;999.90;;;;;;;;;;4994440;28;20284;-66
2024/03/20 05:16:30;;;;;;;1999.90;999.90;;;;;;;;;;4994859;28;20690;-70
2024/03/20 05:19:17;;;;;;;1999.90;999.90;;;;;;;;;;4994527;28;20275;-68
2024/03/20 05:22:00;;;;;;;1999.90;999.90;;;;;;;;;;4993764;28;20957;-68
2024/03/20 05:24:48;;;;;;;1999.90;999.90;;;;;;;;;;4994573;28;20207;-67
2024/03/20 05:27:32;;;;;;;1999.90;999.90;;;;;;;;;;4994570;28;20334;-67
2024/03/20 05:30:17;;;;;;;1999.90;999.90;;;;;;;;;;4994248;28;20731;-68
2024/03/20 05:33:01;;;;;;;1999.90;999.90;;;;;;;;;;4993732;28;20231;-69
2024/03/20 05:35:48;;;;;;;1999.90;999.90;;;;;;;;;;4994683;28;20203;-68
2024/03/20 05:38:32;;;;;;;1999.90;999.90;;;;;;;;;;4993997;28;20532;-70
2024/03/20 05:41:17;;;;;;;1999.90;999.90;;;;;;;;;;4975157;28;20347;-67
2024/03/20 05:44:03;;;;;;;1999.90;999.90;;;;;;;;;;4988033;28;20347;-69
2024/03/20 05:46:49;;;;;;;1999.90;999.90;;;;;;;;;;4994227;28;20207;-67
2024/03/20 05:49:33;;;;;;;1999.90;999.90;;;;;;;;;;4993885;28;20227;-67
2024/03/20 05:52:20;;;;;;;1999.90;999.90;;;;;;;;;;4994606;28;20346;-67
2024/03/20 05:55:04;;;;;;;1999.90;999.90;;;;;;;;;;4986139;28;20215;-68
2024/03/20 05:57:51;;;;;;;1999.90;999.90;;;;;;;;;;4994138;28;20211;-68
2024/03/20 06:00:35;;;;;;;1999.90;999.90;;;;;;;;;;4974558;28;20204;-67
2024/03/20 06:03:20;;;;;;;1999.90;999.90;;;;;;;;;;4983908;28;20195;-67
2024/03/20 06:06:04;;;;;;;1999.90;999.90;;;;;;;;;;4994416;28;20339;-67
2024/03/20 06:08:50;;;;;;;1999.90;999.90;;;;;;;;;;4994239;28;20258;-68
2024/03/20 06:11:35;;;;;;;1999.90;999.90;;;;;;;;;;4993119;28;20625;-66
2024/03/20 06:14:19;;;;;;;1999.90;999.90;;;;;;;;;;4985700;28;20444;-69
2024/03/20 06:17:04;;;;;;;1999.90;999.90;;;;;;;;;;4994334;28;20744;-68
2024/03/20 06:19:50;;;;;;;1999.90;999.90;;;;;;;;;;4994172;28;20592;-68
2024/03/20 06:22:34;;;;;;;1999.90;999.90;;;;;;;;;;4993966;28;20226;-67
2024/03/20 06:25:21;;;;;;;1999.90;999.90;;;;;;;;;;4994523;28;20207;-70
2024/03/20 06:28:05;;;;;;;1999.90;999.90;;;;;;;;;;4989080;28;20211;-68
2024/03/20 06:30:50;;;;;;;1999.90;999.90;;;;;;;;;;4977862;28;20431;-69
2024/03/20 06:33:34;;;;;;;1999.90;999.90;;;;;;;;;;4993461;28;20302;-67
2024/03/20 06:36:20;;;;;;;1999.90;999.90;;;;;;;;;;4993296;28;20207;-67
2024/03/20 06:39:07;;;;;;;1999.90;999.90;;;;;;;;;;4993918;28;20590;-68
2024/03/20 06:41:53;;;;;;;1999.90;999.90;;;;;;;;;;4993645;28;20753;-68
2024/03/20 06:44:37;;;;;;;1999.90;999.90;;;;;;;;;;4993243;28;20577;-68
2024/03/20 06:47:23;;;;;;;1999.90;999.90;;;;;;;;;;4975639;28;20224;-68
2024/03/20 06:50:08;;;;;;;1999.90;999.90;;;;;;;;;;4973855;28;20682;-68
2024/03/20 06:52:53;;;;;;;1999.90;999.90;;;;;;;;;;4974210;28;20335;-69
2024/03/20 06:55:40;;;;;;;1999.90;999.90;;;;;;;;;;4973651;28;20227;-67
2024/03/20 06:58:26;;;;;;;1999.90;999.90;;;;;;;;;;4974058;28;20316;-69
2024/03/20 07:01:11;;;;;;;1999.90;999.90;;;;;;;;;;4973619;28;20266;-69
2024/03/20 07:03:55;;;;;;;1999.90;999.90;;;;;;;;;;4973831;28;20203;-68
2024/03/20 07:06:39;;;;;;;1999.90;999.90;;;;;;;;;;4973948;28;20285;-68
2024/03/20 07:09:25;;;;;;;1999.90;999.90;;;;;;;;;;4973425;28;20438;-69
2024/03/20 07:12:10;;;;;;;1999.90;999.90;;;;;;;;;;4973496;28;20730;-68
2024/03/20 07:14:56;;;;;;;1999.90;999.90;;;;;;;;;;4973525;28;20251;-68
2024/03/20 07:17:41;;;;;;;1999.90;999.90;;;;;;;;;;4973660;28;20200;-66
2024/03/20 07:20:25;;;;;;;1999.90;999.90;;;;;;;;;;4973551;28;20287;-68
2024/03/20 07:23:11;;;;;;;1999.90;999.90;;;;;;;;;;4973885;28;20275;-69
2024/03/20 07:25:55;;;;;;;1999.90;999.90;;;;;;;;;;4973603;28;20203;-68
2024/03/20 07:28:41;;;;;;;1999.90;999.90;;;;;;;;;;4972470;28;20785;-68
2024/03/20 07:31:26;;;;;;;1999.90;999.90;;;;;;;;;;4983621;28;20233;-68
2024/03/20 07:34:11;;;;;;;1999.90;999.90;;;;;;;;;;4992886;28;20209;-68
2024/03/20 07:36:55;;;;;;;1999.90;999.90;;;;;;;;;;4992787;28;20212;-69
2024/03/20 07:39:41;;;;;;;1999.90;999.90;;;;;;;;;;4988610;28;20214;-69
2024/03/20 07:42:27;;;;;;;1999.90;999.90;;;;;;;;;;4973325;28;20305;-67
2024/03/20 07:45:12;;;;;;;1999.90;999.90;;;;;;;;;;4978178;28;20206;-68
2024/03/20 07:47:58;;;;;;;1999.90;999.90;;;;;;;;;;4976782;28;20251;-68
2024/03/20 07:50:43;;;;;;;1999.90;999.90;;;;;;;;;;4978260;28;20839;-69
2024/03/20 07:53:27;;;;;;;1999.90;999.90;;;;;;;;;;4992291;28;20227;-67
2024/03/20 07:56:12;;;;;;;1999.90;999.90;;;;;;;;;;4991982;28;20250;-69
2024/03/20 07:58:56;;;;;;;1999.90;999.90;;;;;;;;;;4992572;28;20211;-68
2024/03/20 08:01:40;;;;;;;1999.90;999.90;;;;;;;;;;4992299;28;20807;-69
2024/03/20 08:04:26;;;;;;;1999.90;999.90;;;;;;;;;;4973864;28;20454;-69
2024/03/20 08:07:10;;;;;;;1999.90;999.90;;;;;;;;;;4973431;28;20243;-68
2024/03/20 08:09:55;;;;;;;1999.90;999.90;;;;;;;;;;4972830;28;20232;-68
2024/03/20 08:12:39;;;;;;;1999.90;999.90;;;;;;;;;;4981145;28;20303;-68
2024/03/20 08:15:24;;;;;;;1999.90;999.90;;;;;;;;;;4991541;28;20300;-68
2024/03/20 08:18:08;;;;;;;1999.90;999.90;;;;;;;;;;4972922;28;20696;-69
2024/03/20 08:20:54;;;;;;;1999.90;999.90;;;;;;;;;;4980378;28;20637;-69
2024/03/20 08:23:38;;;;;;;1999.90;999.90;;;;;;;;;;4990745;28;20522;-69
2024/03/20 08:26:23;;;;;;;1999.90;999.90;;;;;;;;;;4992844;28;20254;-69
2024/03/20 08:29:08;;;;;;;1999.90;999.90;;;;;;;;;;4980841;28;20721;-68
2024/03/20 08:31:53;;;;;;;1999.90;999.90;;;;;;;;;;4991637;28;20219;-68
2024/03/20 08:34:37;;;;;;;1999.90;999.90;;;;;;;;;;4991925;28;20203;-68
2024/03/20 08:37:24;;;;;;;1999.90;999.90;;;;;;;;;;4991797;28;20251;-69
2024/03/20 08:40:09;;;;;;;1999.90;999.90;;;;;;;;;;4991520;28;20211;-68
2024/03/20 08:42:55;;;;;;;1999.90;999.90;;;;;;;;;;4991812;28;20207;-68
2024/03/20 08:45:39;;;;;;;1999.90;999.90;;;;;;;;;;4991255;28;20218;-67
2024/03/20 08:48:23;;;;;;;1999.90;999.90;;;;;;;;;;4992097;28;20576;-67
2024/03/20 08:51:07;;;;;;;1999.90;999.90;;;;;;;;;;4991688;28;20239;-67
2024/03/20 08:53:53;;;;;;;1999.90;999.90;;;;;;;;;;4987817;28;20223;-68
2024/03/20 08:56:38;;;;;;;1999.90;999.90;;;;;;;;;;4985907;28;20211;-67
2024/03/20 08:59:23;;;;;;;1999.90;999.90;;;;;;;;;;4991282;28;20199;-68
2024/03/20 09:02:08;;;;;;;1999.90;999.90;;;;;;;;;;4991203;28;20363;-67
2024/03/20 09:04:53;;;;;;;1999.90;999.90;;;;;;;;;;4991024;28;20210;-68
2024/03/20 09:07:37;;;;;;;1999.90;999.90;;;;;;;;;;4991499;28;20204;-68
2024/03/20 09:10:23;;;;;;;1999.90;999.90;;;;;;;;;;4994774;28;20223;-68
2024/03/20 09:13:10;;;;;;;1999.90;999.90;;;;;;;;;;4995012;28;20236;-68
2024/03/20 09:15:56;;;;;;;1999.90;999.90;;;;;;;;;;4994448;28;20876;-68
2024/03/20 09:18:41;;;;;;;1999.90;999.90;;;;;;;;;;4994755;28;20794;-68
2024/03/20 09:21:25;;;;;;;1999.90;999.90;;;;;;;;;;4994508;28;20339;-68
2024/03/20 09:24:14;;;;;;;1999.90;999.90;;;;;;;;;;4994562;28;20214;-67
2024/03/20 09:27:00;;;;;;;1999.90;999.90;;;;;;;;;;4984887;28;20351;-68
2024/03/20 09:29:44;;;;;;;1999.90;999.90;;;;;;;;;;4994308;28;20306;-67
2024/03/20 09:32:30;;;;;;;1999.90;999.90;;;;;;;;;;4994807;28;20226;-68
2024/03/20 09:35:14;;;;;;;1999.90;999.90;;;;;;;;;;4994786;28;20286;-69
2024/03/20 09:37:58;;;;;;;1999.90;999.90;;;;;;;;;;4994537;28;20206;-67
2024/03/20 09:40:42;;;;;;;1999.90;999.90;;;;;;;;;;4994419;28;20228;-68
2024/03/20 09:43:28;;;;;;;1999.90;999.90;;;;;;;;;;4985879;28;20200;-69
2024/03/20 09:46:14;;;;;;;1999.90;999.90;;;;;;;;;;4991071;28;20235;-68
2024/03/20 09:48:59;;;;;;;1999.90;999.90;;;;;;;;;;4993543;28;20886;-68
2024/03/20 09:51:43;;;;;;;1999.90;999.90;;;;;;;;;;4994124;28;20235;-69
2024/03/20 09:54:29;;;;;;;1999.90;999.90;;;;;;;;;;4992080;28;20633;-67
2024/03/20 09:57:13;;;;;;;1999.90;999.90;;;;;;;;;;4974796;28;20698;-69
2024/03/20 10:00:00;;;;;;;1999.90;999.90;;;;;;;;;;4974975;28;20376;-68
2024/03/20 10:02:44;;;;;;;1999.90;999.90;;;;;;;;;;4980993;28;20219;-67
2024/03/20 10:05:30;;;;;;;1999.90;999.90;;;;;;;;;;4994455;28;20589;-68
2024/03/20 10:08:14;;;;;;;1999.90;999.90;;;;;;;;;;4993195;28;20540;-66
2024/03/20 10:11:00;;;;;;;1999.90;999.90;;;;;;;;;;4992934;28;20273;-68
2024/03/20 10:13:44;;;;;;;1999.90;999.90;;;;;;;;;;4984044;28;20335;-66
2024/03/20 10:16:31;;;;;;;1999.90;999.90;;;;;;;;;;4993679;28;20203;-69
2024/03/20 10:19:15;;;;;;;1999.90;999.90;;;;;;;;;;4974808;28;20220;-68
2024/03/20 10:22:01;;;;;;;1999.90;999.90;;;;;;;;;;4993183;28;20754;-68
2024/03/20 10:24:45;;;;;;;1999.90;999.90;;;;;;;;;;4993956;28;20211;-68
2024/03/20 10:27:30;;;;;;;1999.90;999.90;;;;;;;;;;4993908;28;20237;-67
2024/03/20 10:30:15;;;;;;;1999.90;999.90;;;;;;;;;;4994012;28;20230;-68
2024/03/20 10:33:02;;;;;;;1999.90;999.90;;;;;;;;;;4993705;28;20199;-68
2024/03/20 10:35:48;;;;;;;1999.90;999.90;;;;;;;;;;4974336;28;20236;-69
2024/03/20 10:38:33;;;;;;;1999.90;999.90;;;;;;;;;;4974650;28;20204;-68
2024/03/20 10:41:18;;;;;;;1999.90;999.90;;;;;;;;;;4983973;28;20423;-67
2024/03/20 10:44:03;;;;;;;1999.90;999.90;;;;;;;;;;4991970;28;20234;-68
2024/03/20 10:46:48;;;;;;;1999.90;999.90;;;;;;;;;;4993536;28;20211;-68
2024/03/20 10:49:36;;;;;;;1999.90;999.90;;;;;;;;;;4992960;28;20254;-67
2024/03/20 10:52:20;;;;;;;1999.90;999.90;;;;;;;;;;4992966;28;20223;-67
2024/03/20 10:55:06;;;;;;;1999.90;999.90;;;;;;;;;;4993074;28;20254;-68
2024/03/20 10:57:50;;;;;;;1999.90;999.90;;;;;;;;;;4992218;28;20342;-67
2024/03/20 11:00:35;;;;;;;1999.90;999.90;;;;;;;;;;4972128;28;20399;-69
2024/03/20 11:03:40;;;;;;;1999.90;999.90;;;;;;;;;;4973732;28;20208;-70
2024/03/20 11:06:43;;;;;;;1999.90;999.90;;;;;;;;;;4983762;28;20199;-69
2024/03/20 11:09:30;;;;;;;1999.90;999.90;;;;;;;;;;4992399;28;20218;-67
2024/03/20 11:12:25;;;;;;;1999.90;999.90;;;;;;;;;;4991286;28;20598;-68
2024/03/20 11:15:14;;;;;;;1999.90;999.90;;;;;;;;;;4973231;28;20262;-68
2024/03/20 11:17:59;;;;;;;1999.90;999.90;;;;;;;;;;4983683;28;20203;-67
2024/03/20 11:20:45;;;;;;;1999.90;999.90;;;;;;;;;;4992648;28;20759;-68
2024/03/20 11:23:33;;;;;;;1999.90;999.90;;;;;;;;;;4991746;28;20772;-68
2024/03/20 11:26:17;;;;;;;1999.90;999.90;;;;;;;;;;4992763;28;20787;-66
2024/03/20 11:29:03;;;;;;;1999.90;999.90;;;;;;;;;;4988825;28;20208;-67
2024/03/20 11:31:47;;;;;;;1999.90;999.90;;;;;;;;;;4972063;28;20240;-69
2024/03/20 11:34:35;;;;;;;1999.90;999.90;;;;;;;;;;4989386;28;20318;-66
2024/03/20 11:37:19;;;;;;;1999.90;999.90;;;;;;;;;;4971831;28;20959;-69
2024/03/20 11:40:06;;;;;;;1999.90;999.90;;;;;;;;;;4973151;28;20235;-68
2024/03/20 11:42:51;;;;;;;1999.90;999.90;;;;;;;;;;4972796;28;20203;-69
2024/03/20 11:45:36;;;;;;;1999.90;999.90;;;;;;;;;;4991497;28;20216;-68
2024/03/20 11:48:20;;;;;;;1999.90;999.90;;;;;;;;;;4992282;28;20207;-69
2024/03/20 11:51:05;;;;;;;1999.90;999.90;;;;;;;;;;4988854;28;20248;-69
2024/03/20 11:53:51;;;;;;;1999.90;999.90;;;;;;;;;;4991231;28;20276;-67
2024/03/20 11:56:37;;;;;;;1999.90;999.90;;;;;;;;;;4990736;28;20522;-68
2024/03/20 11:59:21;;;;;;;1999.90;999.90;;;;;;;;;;4992275;28;20239;-68
2024/03/20 12:02:06;;;;;;;1999.90;999.90;;;;;;;;;;4975592;28;20240;-69
2024/03/20 12:04:50;;;;;;;1999.90;999.90;;;;;;;;;;4978911;28;20734;-69
2024/03/20 12:07:36;;;;;;;1999.90;999.90;;;;;;;;;;4991894;28;20286;-69
2024/03/20 12:10:31;;;;;;;1999.90;999.90;;;;;;;;;;4992193;28;20227;-68
2024/03/20 12:13:17;;;;;;;1999.90;999.90;;;;;;;;;;4991776;28;20758;-67
2024/03/20 12:16:02;;;;;;;1999.90;999.90;;;;;;;;;;4991431;28;20208;-68
2024/03/20 12:18:47;;;;;;;1999.90;999.90;;;;;;;;;;4985783;28;20227;-68
2024/03/20 12:21:33;;;;;;;1999.90;999.90;;;;;;;;;;4987749;28;20233;-67
2024/03/20 12:24:17;;;;;;;1999.90;999.90;;;;;;;;;;4991870;28;20293;-68
2024/03/20 12:27:04;;;;;;;1999.90;999.90;;;;;;;;;;4991894;28;20233;-68
2024/03/20 12:29:50;;;;;;;1999.90;999.90;;;;;;;;;;4991780;28;20417;-69
2024/03/20 12:32:34;;;;;;;1999.90;999.90;;;;;;;;;;4991506;28;20232;-68
2024/03/20 12:35:18;;;;;;;1999.90;999.90;;;;;;;;;;4991839;28;20577;-69
2024/03/20 12:38:03;;;;;;;1999.90;999.90;;;;;;;;;;4991608;28;20243;-68
2024/03/20 12:40:49;;;;;;;1999.90;999.90;;;;;;;;;;4991327;28;20227;-68
2024/03/20 12:43:33;;;;;;;1999.90;999.90;;;;;;;;;;4976508;28;20216;-67
2024/03/20 12:46:19;;;;;;;1999.90;999.90;;;;;;;;;;4981601;28;20327;-67
2024/03/20 12:49:05;;;;;;;1999.90;999.90;;;;;;;;;;4994267;28;20424;-69
2024/03/20 12:51:50;;;;;;;1999.90;999.90;;;;;;;;;;4994789;28;20757;-69
2024/03/20 12:54:34;;;;;;;1999.90;999.90;;;;;;;;;;4994441;28;20278;-69
2024/03/20 12:57:21;;;;;;;1999.90;999.90;;;;;;;;;;4995126;28;20263;-69
2024/03/20 13:00:10;;;;;;;1999.90;999.90;;;;;;;;;;4994335;28;20208;-68
2024/03/20 13:02:56;;;;;;;1999.90;999.90;;;;;;;;;;4995058;28;20234;-68
2024/03/20 13:05:40;;;;;;;1999.90;999.90;;;;;;;;;;4985383;28;20298;-66
2024/03/20 13:08:25;;;;;;;1999.90;999.90;;;;;;;;;;4994539;28;20295;-70
2024/03/20 13:11:12;;;;;;;1999.90;999.90;;;;;;;;;;4986510;28;20608;-68
2024/03/20 13:13:57;;;;;;;1999.90;999.90;;;;;;;;;;4975780;28;20735;-70
2024/03/20 13:16:41;;;;;;;1999.90;999.90;;;;;;;;;;4986198;28;20222;-68
2024/03/20 13:19:28;;;;;;;1999.90;999.90;;;;;;;;;;4978469;28;20244;-68
2024/03/20 13:22:15;;;;;;;1999.90;999.90;;;;;;;;;;4981286;28;20413;-69
2024/03/20 13:25:00;;;;;;;1999.90;999.90;;;;;;;;;;4986318;28;20920;-68
2024/03/20 13:27:43;;;;;;;1999.90;999.90;;;;;;;;;;4975757;28;20211;-69
2024/03/20 13:30:28;;;;;;;1999.90;999.90;;;;;;;;;;4992795;28;20225;-69
2024/03/20 13:33:14;;;;;;;1999.90;999.90;;;;;;;;;;4994133;28;20255;-69
2024/03/20 13:36:00;;;;;;;1999.90;999.90;;;;;;;;;;4994344;28;20330;-69
2024/03/20 13:38:44;;;;;;;1999.90;999.90;;;;;;;;;;4994548;28;20218;-68
2024/03/20 13:41:45;;;;;;;1999.90;999.90;;;;;;;;;;4993899;28;20421;-69
2024/03/20 13:44:29;;;;;;;1999.90;999.90;;;;;;;;;;4974805;28;20217;-68
2024/03/20 13:47:15;;;;;;;1999.90;999.90;;;;;;;;;;4975446;28;20258;-68
2024/03/20 13:49:59;;;;;;;1999.90;999.90;;;;;;;;;;4991777;28;20597;-69
2024/03/20 13:52:45;;;;;;;1999.90;999.90;;;;;;;;;;4974984;28;20250;-69
2024/03/20 13:55:30;;;;;;;1999.90;999.90;;;;;;;;;;4974523;28;20218;-68
2024/03/20 13:58:15;;;;;;;1999.90;999.90;;;;;;;;;;4981484;28;20213;-69
2024/03/20 14:00:58;;;;;;;1999.90;999.90;;;;;;;;;;4986080;28;20310;-68
2024/03/20 14:03:44;;;;;;;1999.90;999.90;;;;;;;;;;4993871;28;20231;-70
2024/03/20 14:06:29;;;;;;;1999.90;999.90;;;;;;;;;;4994368;28;20211;-68
2024/03/20 14:09:16;;;;;;;1999.90;999.90;;;;;;;;;;4994322;28;20204;-69
2024/03/20 14:12:00;;;;;;;1999.90;999.90;;;;;;;;;;4993509;28;20247;-69
2024/03/20 14:14:45;;;;;;;1999.90;999.90;;;;;;;;;;4993562;28;20330;-69
2024/03/20 14:17:30;;;;;;;1999.90;999.90;;;;;;;;;;4992399;28;20428;-67
2024/03/20 14:20:16;;;;;;;1999.90;999.90;;;;;;;;;;4987260;28;20277;-69
2024/03/20 14:23:00;;;;;;;1999.90;999.90;;;;;;;;;;4993956;28;20203;-69
2024/03/20 14:25:47;;;;;;;1999.90;999.90;;;;;;;;;;4994298;28;20208;-70
2024/03/20 14:28:32;;;;;;;1999.90;999.90;;;;;;;;;;4993506;28;20699;-69
2024/03/20 14:31:16;;;;;;;1999.90;999.90;;;;;;;;;;4987322;28;20228;-68
2024/03/20 14:34:01;;;;;;;1999.90;999.90;;;;;;;;;;4993561;28;20209;-68
2024/03/20 14:36:45;;;;;;;1999.90;999.90;;;;;;;;;;4993806;28;20204;-68
2024/03/20 14:39:30;;;;;;;1999.90;999.90;;;;;;;;;;4993802;28;20623;-69
2024/03/20 14:42:16;;;;;;;1999.90;999.90;;;;;;;;;;4993765;28;20222;-70
2024/03/20 14:45:01;;;;;;;1999.90;999.90;;;;;;;;;;4977413;28;20620;-69
2024/03/20 14:47:45;;;;;;;1999.90;999.90;;;;;;;;;;4986467;28;20212;-69
2024/03/20 14:50:30;;;;;;;1999.90;999.90;;;;;;;;;;4992686;28;20203;-69
2024/03/20 14:53:16;;;;;;;1999.90;999.90;;;;;;;;;;4985125;28;20212;-70
2024/03/20 14:56:01;;;;;;;1999.90;999.90;;;;;;;;;;4991936;28;20579;-70
2024/03/20 14:58:47;;;;;;;1999.90;999.90;;;;;;;;;;4985127;28;20212;-69
2024/03/20 15:01:32;;;;;;;1999.90;999.90;;;;;;;;;;4973822;28;20237;-68
2024/03/20 15:04:16;;;;;;;1999.90;999.90;;;;;;;;;;4973619;28;20690;-70
2024/03/20 15:07:01;;;;;;;1999.90;999.90;;;;;;;;;;4974072;28;20258;-68
2024/03/20 15:09:45;;;;;;;1999.90;999.90;;;;;;;;;;4973172;28;20414;-68
2024/03/20 15:12:30;;;;;;;1999.90;999.90;;;;;;;;;;4978664;28;20746;-69
2024/03/20 15:15:15;;;;;;;1999.90;999.90;;;;;;;;;;4990060;28;20344;-69
2024/03/20 15:18:00;;;;;;;1999.90;999.90;;;;;;;;;;4993019;28;20285;-68
2024/03/20 15:20:45;;;;;;;1999.90;999.90;;;;;;;;;;4982265;28;20235;-69
2024/03/20 15:23:29;;;;;;;1999.90;999.90;;;;;;;;;;4992330;28;20211;-68
2024/03/20 15:26:13;;;;;;;1999.90;999.90;;;;;;;;;;4992537;28;20708;-69
2024/03/20 15:28:58;;;;;;;1999.90;999.90;;;;;;;;;;4990014;28;20517;-68
2024/03/20 15:31:45;;;;;;;1999.90;999.90;;;;;;;;;;4991874;28;20233;-69
2024/03/20 15:34:31;;;;;;;1999.90;999.90;;;;;;;;;;4992571;28;20206;-69
2024/03/20 15:37:15;;;;;;;1999.90;999.90;;;;;;;;;;4985135;28;20211;-68
2024/03/20 15:40:00;;;;;;;1999.90;999.90;;;;;;;;;;4992608;28;20206;-68
2024/03/20 15:42:44;;;;;;;1999.90;999.90;;;;;;;;;;4991894;28;20211;-69
2024/03/20 15:45:29;;;;;;;1999.90;999.90;;;;;;;;;;4973041;28;20208;-69
2024/03/20 15:48:15;;;;;;;1999.90;999.90;;;;;;;;;;4973207;28;20701;-69
2024/03/20 15:51:00;;;;;;;1999.90;999.90;;;;;;;;;;4975991;28;20730;-68
2024/03/20 15:53:44;;;;;;;1999.90;999.90;;;;;;;;;;4984808;28;20208;-68
2024/03/20 15:56:30;;;;;;;1999.90;999.90;;;;;;;;;;4991919;28;20203;-69
2024/03/20 15:59:14;;;;;;;1999.90;999.90;;;;;;;;;;4992706;28;20207;-69
2024/03/20 16:01:59;;;;;;;1999.90;999.90;;;;;;;;;;4992192;28;20914;-68
2024/03/20 16:04:44;;;;;;;1999.90;999.90;;;;;;;;;;4991928;28;20208;-70
2024/03/20 16:07:30;;;;;;;1999.90;999.90;;;;;;;;;;4991925;28;20212;-69
2024/03/20 16:10:14;;;;;;;1999.90;999.90;;;;;;;;;;4992194;28;20339;-69
2024/03/20 16:12:59;;;;;;;1999.90;999.90;;;;;;;;;;4991806;28;20737;-68
2024/03/20 16:15:46;;;;;;;1999.90;999.90;;;;;;;;;;4992311;28;20216;-70
2024/03/20 16:18:30;;;;;;;1999.90;999.90;;;;;;;;;;4988970;28;20215;-67
2024/03/20 16:21:16;;;;;;;1999.90;999.90;;;;;;;;;;4995982;28;20218;-69
2024/03/20 16:24:00;;;;;;;1999.90;999.90;;;;;;;;;;4995403;28;20346;-68
2024/03/20 16:26:45;;;;;;;1999.90;999.90;;;;;;;;;;4994124;28;20779;-69
2024/03/20 16:29:29;;;;;;;1999.90;999.90;;;;;;;;;;4995312;28;20759;-69
2024/03/20 16:32:14;;;;;;;1999.90;999.90;;;;;;;;;;4995051;28;20266;-68
2024/03/20 16:34:58;;;;;;;1999.90;999.90;;;;;;;;;;4995305;28;20213;-68
2024/03/20 16:37:44;;;;;;;1999.90;999.90;;;;;;;;;;4995612;28;20711;-71
2024/03/20 16:40:33;;;;;;;1999.90;999.90;;;;;;;;;;4995708;28;20207;-69
2024/03/20 16:43:22;;;;;;;1999.90;999.90;;;;;;;;;;4995862;28;20544;-69
2024/03/20 16:46:07;;;;;;;1999.90;999.90;;;;;;;;;;4995337;28;20340;-67
2024/03/20 16:48:53;;;;;;;1999.90;999.90;;;;;;;;;;4994774;28;20343;-69
2024/03/20 16:51:37;;;;;;;1999.90;999.90;;;;;;;;;;4995335;28;20231;-68
2024/03/20 16:54:23;;;;;;;1999.90;999.90;;;;;;;;;;4981109;28;20200;-70
2024/03/20 16:57:07;;;;;;;1999.90;999.90;;;;;;;;;;4995807;28;20238;-69
2024/03/20 16:59:53;;;;;;;1999.90;999.90;;;;;;;;;;4994729;28;20453;-68
2024/03/20 17:02:37;;;;;;;1999.90;999.90;;;;;;;;;;4994882;28;20246;-69
2024/03/20 17:05:23;;;;;;;1999.90;999.90;;;;;;;;;;4994585;28;20199;-69
2024/03/20 17:08:07;;;;;;;1999.90;999.90;;;;;;;;;;4995538;28;20701;-70
2024/03/20 17:10:53;;;;;;;1999.90;999.90;;;;;;;;;;4995586;28;20227;-70
2024/03/20 17:13:37;;;;;;;1999.90;999.90;;;;;;;;;;4995545;28;20219;-69
2024/03/20 17:16:22;;;;;;;1999.90;999.90;;;;;;;;;;4981222;28;20204;-69
2024/03/20 17:19:06;;;;;;;1999.90;999.90;;;;;;;;;;4985624;28;20414;-70
2024/03/20 17:21:51;;;;;;;1999.90;999.90;;;;;;;;;;4994740;28;20350;-70
2024/03/20 17:24:35;;;;;;;1999.90;999.90;;;;;;;;;;4994663;28;20275;-69
2024/03/20 17:27:21;;;;;;;1999.90;999.90;;;;;;;;;;4995129;28;20723;-67
2024/03/20 17:30:05;;;;;;;1999.90;999.90;;;;;;;;;;4994343;28;20217;-69
2024/03/20 17:32:50;;;;;;;1999.90;999.90;;;;;;;;;;4994567;28;20227;-70
2024/03/20 17:35:34;;;;;;;1999.90;999.90;;;;;;;;;;4994768;28;20691;-68
2024/03/20 17:38:19;;;;;;;1999.90;999.90;;;;;;;;;;4995153;28;20203;-68
2024/03/20 17:41:03;;;;;;;1999.90;999.90;;;;;;;;;;4994934;28;20226;-68
2024/03/20 17:43:49;;;;;;;1999.90;999.90;;;;;;;;;;4994749;28;20258;-69
2024/03/20 17:46:33;;;;;;;1999.90;999.90;;;;;;;;;;4995162;28;20701;-68
2024/03/20 17:49:18;;;;;;;1999.90;999.90;;;;;;;;;;4982960;28;20320;-68
2024/03/20 17:52:03;;;;;;;1999.90;999.90;;;;;;;;;;4994636;28;20238;-68
2024/03/20 17:54:48;;;;;;;1999.90;999.90;;;;;;;;;;4994602;28;20257;-68
2024/03/20 17:57:32;;;;;;;1999.90;999.90;;;;;;;;;;4994767;28;20238;-68
2024/03/20 18:00:19;;;;;;;1999.90;999.90;;;;;;;;;;4994546;28;20210;-69
2024/03/20 18:03:03;;;;;;;1999.90;999.90;;;;;;;;;;4994730;28;20274;-70
2024/03/20 18:05:49;;;;;;;1999.90;999.90;;;;;;;;;;4993397;28;20203;-71
2024/03/20 18:08:33;;;;;;;1999.90;999.90;;;;;;;;;;4993573;28;20235;-69
2024/03/20 18:11:18;;;;;;;1999.90;999.90;;;;;;;;;;4994180;28;20355;-68
2024/03/20 18:14:09;;;;;;;1999.90;999.90;;;;;;;;;;4990521;28;20901;-69
2024/03/20 18:16:56;;;;;;;1999.90;999.90;;;;;;;;;;4991746;28;20199;-68
2024/03/20 18:19:43;;;;;;;1999.90;999.90;;;;;;;;;;4992070;28;20722;-69
2024/03/20 18:22:28;;;;;;;1999.90;999.90;;;;;;;;;;4993596;28;20250;-69
2024/03/20 18:25:13;;;;;;;1999.90;999.90;;;;;;;;;;4993546;28;20214;-67
2024/03/20 18:27:57;;;;;;;1999.90;999.90;;;;;;;;;;4994058;28;20204;-69
2024/03/20 18:30:43;;;;;;;1999.90;999.90;;;;;;;;;;4992879;28;20302;-69
2024/03/20 18:33:29;;;;;;;1999.90;999.90;;;;;;;;;;4974217;28;20282;-69
2024/03/20 18:36:13;;;;;;;1999.90;999.90;;;;;;;;;;4974484;28;20332;-68
2024/03/20 18:38:58;;;;;;;1999.90;999.90;;;;;;;;;;4987797;28;20342;-68
2024/03/20 18:41:43;;;;;;;1999.90;999.90;;;;;;;;;;4986836;28;20231;-69
2024/03/20 18:44:29;;;;;;;1999.90;999.90;;;;;;;;;;4991080;28;20250;-70
2024/03/20 18:47:15;;;;;;;1999.90;999.90;;;;;;;;;;4974080;28;20212;-69
2024/03/20 18:50:00;;;;;;;1999.90;999.90;;;;;;;;;;4980187;28;20211;-69
2024/03/20 18:52:45;;;;;;;1999.90;999.90;;;;;;;;;;4993351;28;20312;-69
2024/03/20 18:55:29;;;;;;;1999.90;999.90;;;;;;;;;;4993024;28;20211;-70
2024/03/20 18:58:16;;;;;;;1999.90;999.90;;;;;;;;;;4992598;28;20200;-69
2024/03/20 19:01:00;;;;;;;1999.90;999.90;;;;;;;;;;4993264;28;20747;-69
2024/03/20 19:03:45;;;;;;;1999.90;999.90;;;;;;;;;;4990447;28;20204;-69
2024/03/20 19:06:30;;;;;;;1999.90;999.90;;;;;;;;;;4973504;28;20415;-68
2024/03/20 19:09:15;;;;;;;1999.90;999.90;;;;;;;;;;4973594;28;20211;-69
2024/03/20 19:11:59;;;;;;;1999.90;999.90;;;;;;;;;;4987040;28;20297;-69
2024/03/20 19:14:45;;;;;;;1999.90;999.90;;;;;;;;;;4994142;28;20203;-69
2024/03/20 19:17:29;;;;;;;1999.90;999.90;;;;;;;;;;4987147;28;20733;-69
2024/03/20 19:20:16;;;;;;;1999.90;999.90;;;;;;;;;;4973802;28;20338;-70
2024/03/20 19:23:01;;;;;;;1999.90;999.90;;;;;;;;;;4984956;28;20215;-70
2024/03/20 19:25:47;;;;;;;1999.90;999.90;;;;;;;;;;4974921;28;20255;-69
2024/03/20 19:28:31;;;;;;;1999.90;999.90;;;;;;;;;;4980700;28;20338;-69
2024/03/20 19:31:16;;;;;;;1999.90;999.90;;;;;;;;;;4992734;28;20238;-70
2024/03/20 19:34:00;;;;;;;1999.90;999.90;;;;;;;;;;4992436;28;20211;-70
2024/03/20 19:36:45;;;;;;;1999.90;999.90;;;;;;;;;;4992984;28;20242;-69
2024/03/20 19:39:31;;;;;;;1999.90;999.90;;;;;;;;;;4992715;28;20211;-70
2024/03/20 19:42:16;;;;;;;1999.90;999.90;;;;;;;;;;4973204;28;20227;-71
2024/03/20 19:45:00;;;;;;;1999.90;999.90;;;;;;;;;;4973057;28;20283;-70
2024/03/20 19:47:45;;;;;;;1999.90;999.90;;;;;;;;;;4973313;28;20701;-70
2024/03/20 19:50:29;;;;;;;1999.90;999.90;;;;;;;;;;4973307;28;20289;-71
2024/03/20 19:53:13;;;;;;;1999.90;999.90;;;;;;;;;;4972502;28;20227;-69
2024/03/20 19:55:59;;;;;;;1999.90;999.90;;;;;;;;;;4973152;28;20282;-71
2024/03/20 19:58:43;;;;;;;1999.90;999.90;;;;;;;;;;4972987;28;21001;-70
2024/03/20 20:01:29;;;;;;;1999.90;999.90;;;;;;;;;;4972141;28;20442;-70
2024/03/20 20:04:15;;;;;;;1999.90;999.90;;;;;;;;;;4972942;28;20196;-69
2024/03/20 20:06:59;;;;;;;1999.90;999.90;;;;;;;;;;4973190;28;20231;-70
2024/03/20 20:09:44;;;;;;;1999.90;999.90;;;;;;;;;;4972762;28;20196;-70
2024/03/20 20:12:29;;;;;;;1999.90;999.90;;;;;;;;;;4972882;28;20714;-69
2024/03/20 20:15:15;;;;;;;1999.90;999.90;;;;;;;;;;4972814;28;20786;-70
2024/03/20 20:18:01;;;;;;;1999.90;999.90;;;;;;;;;;4986693;28;20210;-70
2024/03/20 20:20:46;;;;;;;1999.90;999.90;;;;;;;;;;4992388;28;20633;-70
2024/03/20 20:23:30;;;;;;;1999.90;999.90;;;;;;;;;;4991700;28;20274;-70